Macgregor, Canada
Current Conditions -  °F | °C
As of 2:00 PM on Thursday 18 Dec 2014 (Local Time) from CYBR Reporting Station
Broken Clouds Broken Clouds  
Wind Chill:   Ceiling: 20000
Heat Index:   Visibility: 12mi
Dew Point:   Wind: 2mph
Humidity: 92%   Direction: 70°ENE
Pressure: 30.07"   Gusts: NA
Location:  49.97°N, 98.77°W
Report Text: CYBR 182000Z 07002KT 12SM FEW002 FEW015 BKN200 M13/M14 A3007 RMK SF1SC1CI4 SLP224
Loading
Personal Weather Stations






























Interactive Weather Map New forecast layout! Learn more

10-Day Weather Forecast

Advertisements
Track Severe Weather on mobile